sensor_id;sensor_type;location;lat;lon;timestamp;P1;durP1;ratioP1;P2;durP2;ratioP2
8803;SDS011;4438;50.890;4.726;2022-09-09T00:00:47;3.30;;;1.83;;
8803;SDS011;4438;50.890;4.726;2022-09-09T00:03:18;4.00;;;2.30;;
8803;SDS011;4438;50.890;4.726;2022-09-09T00:06:05;3.60;;;2.10;;
8803;SDS011;4438;50.890;4.726;2022-09-09T00:08:41;4.23;;;2.10;;
8803;SDS011;4438;50.890;4.726;2022-09-09T00:11:12;4.50;;;2.13;;
8803;SDS011;4438;50.890;4.726;2022-09-09T00:13:44;3.37;;;2.20;;
8803;SDS011;4438;50.890;4.726;2022-09-09T00:16:15;3.70;;;2.00;;
8803;SDS011;4438;50.890;4.726;2022-09-09T00:18:50;3.50;;;2.10;;
8803;SDS011;4438;50.890;4.726;2022-09-09T00:21:18;3.17;;;1.87;;
8803;SDS011;4438;50.890;4.726;2022-09-09T00:23:49;2.43;;;1.97;;
8803;SDS011;4438;50.890;4.726;2022-09-09T00:31:28;1.90;;;1.67;;
8803;SDS011;4438;50.890;4.726;2022-09-09T00:33:55;2.20;;;2.10;;
8803;SDS011;4438;50.890;4.726;2022-09-09T00:36:24;2.27;;;1.80;;
8803;SDS011;4438;50.890;4.726;2022-09-09T00:38:58;3.27;;;1.93;;
8803;SDS011;4438;50.890;4.726;2022-09-09T00:44:02;3.53;;;1.97;;
8803;SDS011;4438;50.890;4.726;2022-09-09T00:51:30;4.03;;;1.73;;
8803;SDS011;4438;50.890;4.726;2022-09-09T00:54:12;3.27;;;1.83;;
8803;SDS011;4438;50.890;4.726;2022-09-09T01:00:00;3.50;;;2.10;;
8803;SDS011;4438;50.890;4.726;2022-09-09T01:02:13;2.53;;;1.80;;
8803;SDS011;4438;50.890;4.726;2022-09-09T01:04:41;2.97;;;1.93;;
8803;SDS011;4438;50.890;4.726;2022-09-09T01:07:17;3.50;;;2.20;;
8803;SDS011;4438;50.890;4.726;2022-09-09T01:09:46;2.70;;;2.00;;
8803;SDS011;4438;50.890;4.726;2022-09-09T01:15:01;2.27;;;1.83;;
8803;SDS011;4438;50.890;4.726;2022-09-09T01:17:30;3.10;;;1.90;;
8803;SDS011;4438;50.890;4.726;2022-09-09T01:20:03;3.47;;;1.67;;
8803;SDS011;4438;50.890;4.726;2022-09-09T01:25:21;2.17;;;1.80;;
8803;SDS011;4438;50.890;4.726;2022-09-09T01:27:51;3.10;;;1.70;;
8803;SDS011;4438;50.890;4.726;2022-09-09T01:30:19;3.47;;;2.00;;
8803;SDS011;4438;50.890;4.726;2022-09-09T01:32:46;3.03;;;1.90;;
8803;SDS011;4438;50.890;4.726;2022-09-09T01:37:48;3.17;;;1.70;;
8803;SDS011;4438;50.890;4.726;2022-09-09T01:40:14;3.40;;;1.50;;
8803;SDS011;4438;50.890;4.726;2022-09-09T01:42:40;4.07;;;2.00;;
8803;SDS011;4438;50.890;4.726;2022-09-09T01:45:06;3.47;;;1.80;;
8803;SDS011;4438;50.890;4.726;2022-09-09T01:47:32;1.90;;;1.70;;
8803;SDS011;4438;50.890;4.726;2022-09-09T01:49:59;3.23;;;1.90;;
8803;SDS011;4438;50.890;4.726;2022-09-09T01:52:25;4.13;;;2.17;;
8803;SDS011;4438;50.890;4.726;2022-09-09T01:54:51;4.23;;;2.07;;
8803;SDS011;4438;50.890;4.726;2022-09-09T02:00:06;5.77;;;2.30;;
8803;SDS011;4438;50.890;4.726;2022-09-09T02:02:39;3.93;;;1.97;;
8803;SDS011;4438;50.890;4.726;2022-09-09T02:07:43;5.23;;;2.40;;
8803;SDS011;4438;50.890;4.726;2022-09-09T02:10:32;4.27;;;2.03;;
8803;SDS011;4438;50.890;4.726;2022-09-09T02:13:04;3.00;;;2.03;;
8803;SDS011;4438;50.890;4.726;2022-09-09T02:15:40;5.33;;;2.60;;
8803;SDS011;4438;50.890;4.726;2022-09-09T02:18:09;3.40;;;2.00;;
8803;SDS011;4438;50.890;4.726;2022-09-09T02:20:38;3.60;;;2.03;;
8803;SDS011;4438;50.890;4.726;2022-09-09T02:23:05;3.30;;;2.27;;
8803;SDS011;4438;50.890;4.726;2022-09-09T02:25:33;3.67;;;1.90;;
8803;SDS011;4438;50.890;4.726;2022-09-09T02:28:00;4.80;;;2.43;;
8803;SDS011;4438;50.890;4.726;2022-09-09T02:30:28;5.07;;;2.13;;
8803;SDS011;4438;50.890;4.726;2022-09-09T02:32:56;3.93;;;2.13;;
8803;SDS011;4438;50.890;4.726;2022-09-09T02:35:23;4.57;;;2.80;;
8803;SDS011;4438;50.890;4.726;2022-09-09T02:37:50;3.40;;;1.90;;
8803;SDS011;4438;50.890;4.726;2022-09-09T02:40:17;3.57;;;2.07;;
8803;SDS011;4438;50.890;4.726;2022-09-09T02:42:44;5.63;;;2.40;;
8803;SDS011;4438;50.890;4.726;2022-09-09T02:45:11;4.33;;;2.37;;
8803;SDS011;4438;50.890;4.726;2022-09-09T02:47:39;5.23;;;1.90;;
8803;SDS011;4438;50.890;4.726;2022-09-09T02:50:09;3.90;;;2.20;;
8803;SDS011;4438;50.890;4.726;2022-09-09T02:55:05;3.50;;;1.90;;
8803;SDS011;4438;50.890;4.726;2022-09-09T02:57:33;2.83;;;1.93;;
8803;SDS011;4438;50.890;4.726;2022-09-09T03:00:00;4.83;;;2.10;;
8803;SDS011;4438;50.890;4.726;2022-09-09T03:02:26;3.50;;;2.20;;
8803;SDS011;4438;50.890;4.726;2022-09-09T03:04:52;4.07;;;2.27;;
8803;SDS011;4438;50.890;4.726;2022-09-09T03:07:19;5.57;;;2.27;;
8803;SDS011;4438;50.890;4.726;2022-09-09T03:09:45;4.20;;;2.33;;
8803;SDS011;4438;50.890;4.726;2022-09-09T03:12:11;4.47;;;2.23;;
8803;SDS011;4438;50.890;4.726;2022-09-09T03:14:38;5.13;;;2.53;;
8803;SDS011;4438;50.890;4.726;2022-09-09T03:17:04;5.87;;;2.27;;
8803;SDS011;4438;50.890;4.726;2022-09-09T03:19:31;6.90;;;2.40;;
8803;SDS011;4438;50.890;4.726;2022-09-09T03:21:57;6.20;;;2.47;;
8803;SDS011;4438;50.890;4.726;2022-09-09T03:24:24;5.07;;;2.00;;
8803;SDS011;4438;50.890;4.726;2022-09-09T03:26:50;3.57;;;2.17;;
8803;SDS011;4438;50.890;4.726;2022-09-09T03:29:16;5.03;;;2.27;;
8803;SDS011;4438;50.890;4.726;2022-09-09T03:31:43;5.83;;;2.33;;
8803;SDS011;4438;50.890;4.726;2022-09-09T03:34:10;4.63;;;2.30;;
8803;SDS011;4438;50.890;4.726;2022-09-09T03:36:36;4.90;;;2.27;;
8803;SDS011;4438;50.890;4.726;2022-09-09T03:39:02;5.60;;;2.40;;
8803;SDS011;4438;50.890;4.726;2022-09-09T03:41:29;7.53;;;2.50;;
8803;SDS011;4438;50.890;4.726;2022-09-09T03:43:55;4.37;;;2.33;;
8803;SDS011;4438;50.890;4.726;2022-09-09T03:46:23;5.10;;;2.33;;
8803;SDS011;4438;50.890;4.726;2022-09-09T03:48:49;4.37;;;2.33;;
8803;SDS011;4438;50.890;4.726;2022-09-09T03:51:16;4.07;;;2.27;;
8803;SDS011;4438;50.890;4.726;2022-09-09T03:53:42;6.87;;;2.30;;
8803;SDS011;4438;50.890;4.726;2022-09-09T03:56:08;4.67;;;2.30;;
8803;SDS011;4438;50.890;4.726;2022-09-09T03:58:35;4.87;;;2.10;;
8803;SDS011;4438;50.890;4.726;2022-09-09T04:01:02;5.77;;;2.17;;
8803;SDS011;4438;50.890;4.726;2022-09-09T04:03:29;4.07;;;2.53;;
8803;SDS011;4438;50.890;4.726;2022-09-09T04:05:55;5.80;;;3.03;;
8803;SDS011;4438;50.890;4.726;2022-09-09T04:08:22;5.23;;;2.30;;
8803;SDS011;4438;50.890;4.726;2022-09-09T04:10:50;4.30;;;2.10;;
8803;SDS011;4438;50.890;4.726;2022-09-09T04:13:17;4.40;;;2.37;;
8803;SDS011;4438;50.890;4.726;2022-09-09T04:15:43;4.33;;;2.23;;
8803;SDS011;4438;50.890;4.726;2022-09-09T04:18:10;7.37;;;2.83;;
8803;SDS011;4438;50.890;4.726;2022-09-09T04:20:37;5.30;;;2.60;;
8803;SDS011;4438;50.890;4.726;2022-09-09T04:23:03;6.37;;;2.60;;
8803;SDS011;4438;50.890;4.726;2022-09-09T04:25:30;5.83;;;2.43;;
8803;SDS011;4438;50.890;4.726;2022-09-09T04:27:56;4.13;;;2.07;;
8803;SDS011;4438;50.890;4.726;2022-09-09T04:30:23;6.17;;;2.30;;
8803;SDS011;4438;50.890;4.726;2022-09-09T04:32:49;6.80;;;2.40;;
8803;SDS011;4438;50.890;4.726;2022-09-09T04:35:15;5.60;;;2.40;;
8803;SDS011;4438;50.890;4.726;2022-09-09T04:37:41;6.63;;;2.63;;
8803;SDS011;4438;50.890;4.726;2022-09-09T04:40:08;6.17;;;2.60;;
8803;SDS011;4438;50.890;4.726;2022-09-09T04:42:37;4.23;;;2.50;;
8803;SDS011;4438;50.890;4.726;2022-09-09T04:45:04;6.03;;;2.70;;
8803;SDS011;4438;50.890;4.726;2022-09-09T04:47:31;5.23;;;2.50;;
8803;SDS011;4438;50.890;4.726;2022-09-09T04:49:57;7.00;;;2.70;;
8803;SDS011;4438;50.890;4.726;2022-09-09T04:52:23;6.20;;;2.60;;
8803;SDS011;4438;50.890;4.726;2022-09-09T04:54:49;7.13;;;2.67;;
8803;SDS011;4438;50.890;4.726;2022-09-09T04:57:15;4.83;;;2.40;;
8803;SDS011;4438;50.890;4.726;2022-09-09T04:59:41;7.53;;;3.23;;
8803;SDS011;4438;50.890;4.726;2022-09-09T05:02:08;5.43;;;2.57;;
8803;SDS011;4438;50.890;4.726;2022-09-09T05:04:35;4.97;;;2.50;;
8803;SDS011;4438;50.890;4.726;2022-09-09T05:07:01;9.70;;;3.33;;
8803;SDS011;4438;50.890;4.726;2022-09-09T05:09:27;5.93;;;2.73;;
8803;SDS011;4438;50.890;4.726;2022-09-09T05:11:54;7.10;;;3.20;;
8803;SDS011;4438;50.890;4.726;2022-09-09T05:14:21;6.53;;;2.93;;
8803;SDS011;4438;50.890;4.726;2022-09-09T05:16:47;9.90;;;3.67;;
8803;SDS011;4438;50.890;4.726;2022-09-09T05:19:15;5.93;;;2.83;;
8803;SDS011;4438;50.890;4.726;2022-09-09T05:21:44;6.37;;;3.10;;
8803;SDS011;4438;50.890;4.726;2022-09-09T05:24:10;8.50;;;3.43;;
8803;SDS011;4438;50.890;4.726;2022-09-09T05:26:36;6.83;;;3.30;;
8803;SDS011;4438;50.890;4.726;2022-09-09T05:29:02;8.30;;;3.10;;
8803;SDS011;4438;50.890;4.726;2022-09-09T05:31:29;6.33;;;3.20;;
8803;SDS011;4438;50.890;4.726;2022-09-09T05:33:55;5.93;;;3.40;;
8803;SDS011;4438;50.890;4.726;2022-09-09T05:36:22;5.97;;;3.13;;
8803;SDS011;4438;50.890;4.726;2022-09-09T05:38:48;7.87;;;3.63;;
8803;SDS011;4438;50.890;4.726;2022-09-09T05:41:15;6.20;;;2.97;;
8803;SDS011;4438;50.890;4.726;2022-09-09T05:43:42;6.93;;;3.13;;
8803;SDS011;4438;50.890;4.726;2022-09-09T05:46:16;6.73;;;3.17;;
8803;SDS011;4438;50.890;4.726;2022-09-09T05:48:43;7.67;;;3.03;;
8803;SDS011;4438;50.890;4.726;2022-09-09T05:51:12;10.33;;;3.40;;
8803;SDS011;4438;50.890;4.726;2022-09-09T05:53:40;6.90;;;3.17;;
8803;SDS011;4438;50.890;4.726;2022-09-09T05:56:14;5.87;;;2.97;;
8803;SDS011;4438;50.890;4.726;2022-09-09T05:58:40;6.03;;;2.77;;
8803;SDS011;4438;50.890;4.726;2022-09-09T06:01:16;5.87;;;2.83;;
8803;SDS011;4438;50.890;4.726;2022-09-09T06:03:43;6.57;;;3.13;;
8803;SDS011;4438;50.890;4.726;2022-09-09T06:06:10;10.50;;;3.67;;
8803;SDS011;4438;50.890;4.726;2022-09-09T06:08:38;35.30;;;7.53;;
8803;SDS011;4438;50.890;4.726;2022-09-09T06:11:05;6.30;;;2.87;;
8803;SDS011;4438;50.890;4.726;2022-09-09T06:13:32;6.30;;;3.23;;
8803;SDS011;4438;50.890;4.726;2022-09-09T06:15:58;5.90;;;2.70;;
8803;SDS011;4438;50.890;4.726;2022-09-09T06:18:25;5.53;;;2.50;;
8803;SDS011;4438;50.890;4.726;2022-09-09T06:20:55;6.03;;;3.00;;
8803;SDS011;4438;50.890;4.726;2022-09-09T06:23:21;9.43;;;2.80;;
8803;SDS011;4438;50.890;4.726;2022-09-09T06:25:47;5.27;;;2.63;;
8803;SDS011;4438;50.890;4.726;2022-09-09T06:28:14;5.80;;;2.67;;
8803;SDS011;4438;50.890;4.726;2022-09-09T06:30:41;6.23;;;3.20;;
8803;SDS011;4438;50.890;4.726;2022-09-09T06:33:07;5.93;;;2.83;;
8803;SDS011;4438;50.890;4.726;2022-09-09T06:35:34;5.83;;;2.63;;
8803;SDS011;4438;50.890;4.726;2022-09-09T06:38:00;6.40;;;2.60;;
8803;SDS011;4438;50.890;4.726;2022-09-09T06:40:26;8.53;;;3.10;;
8803;SDS011;4438;50.890;4.726;2022-09-09T06:42:52;5.20;;;2.80;;
8803;SDS011;4438;50.890;4.726;2022-09-09T06:45:18;6.20;;;2.87;;
8803;SDS011;4438;50.890;4.726;2022-09-09T06:47:44;5.53;;;2.73;;
8803;SDS011;4438;50.890;4.726;2022-09-09T06:50:10;7.73;;;2.90;;
8803;SDS011;4438;50.890;4.726;2022-09-09T06:52:36;7.33;;;2.80;;
8803;SDS011;4438;50.890;4.726;2022-09-09T06:55:03;5.57;;;2.60;;
8803;SDS011;4438;50.890;4.726;2022-09-09T06:57:29;8.27;;;2.87;;
8803;SDS011;4438;50.890;4.726;2022-09-09T06:59:55;8.53;;;2.90;;
8803;SDS011;4438;50.890;4.726;2022-09-09T07:02:21;6.60;;;2.80;;
8803;SDS011;4438;50.890;4.726;2022-09-09T07:04:47;7.53;;;2.53;;
8803;SDS011;4438;50.890;4.726;2022-09-09T07:07:16;6.00;;;2.80;;
8803;SDS011;4438;50.890;4.726;2022-09-09T07:09:42;4.57;;;2.43;;
8803;SDS011;4438;50.890;4.726;2022-09-09T07:12:10;9.80;;;3.00;;
8803;SDS011;4438;50.890;4.726;2022-09-09T07:14:38;7.03;;;2.77;;
8803;SDS011;4438;50.890;4.726;2022-09-09T07:17:04;6.70;;;3.07;;
8803;SDS011;4438;50.890;4.726;2022-09-09T07:19:30;5.43;;;2.63;;
8803;SDS011;4438;50.890;4.726;2022-09-09T07:21:56;7.43;;;3.07;;
8803;SDS011;4438;50.890;4.726;2022-09-09T07:24:22;7.17;;;2.47;;
8803;SDS011;4438;50.890;4.726;2022-09-09T07:26:48;7.97;;;2.63;;
8803;SDS011;4438;50.890;4.726;2022-09-09T07:29:14;6.53;;;2.53;;
8803;SDS011;4438;50.890;4.726;2022-09-09T07:31:41;7.50;;;2.60;;
8803;SDS011;4438;50.890;4.726;2022-09-09T07:34:07;5.23;;;2.40;;
8803;SDS011;4438;50.890;4.726;2022-09-09T07:36:37;6.70;;;2.60;;
8803;SDS011;4438;50.890;4.726;2022-09-09T07:39:08;7.80;;;2.67;;
8803;SDS011;4438;50.890;4.726;2022-09-09T07:44:07;4.57;;;2.10;;
8803;SDS011;4438;50.890;4.726;2022-09-09T07:46:34;6.67;;;2.33;;
8803;SDS011;4438;50.890;4.726;2022-09-09T07:49:01;8.10;;;2.60;;
8803;SDS011;4438;50.890;4.726;2022-09-09T07:51:29;5.73;;;2.43;;
8803;SDS011;4438;50.890;4.726;2022-09-09T07:53:59;7.07;;;2.47;;
8803;SDS011;4438;50.890;4.726;2022-09-09T07:56:27;4.63;;;2.50;;
8803;SDS011;4438;50.890;4.726;2022-09-09T07:58:54;5.67;;;2.37;;
8803;SDS011;4438;50.890;4.726;2022-09-09T08:01:25;4.57;;;2.27;;
8803;SDS011;4438;50.890;4.726;2022-09-09T08:03:58;5.77;;;2.30;;
8803;SDS011;4438;50.890;4.726;2022-09-09T08:06:26;3.50;;;2.60;;
8803;SDS011;4438;50.890;4.726;2022-09-09T08:08:53;9.33;;;2.80;;
8803;SDS011;4438;50.890;4.726;2022-09-09T08:11:20;6.13;;;2.63;;
8803;SDS011;4438;50.890;4.726;2022-09-09T08:13:48;5.90;;;2.43;;
8803;SDS011;4438;50.890;4.726;2022-09-09T08:16:16;6.97;;;2.70;;
8803;SDS011;4438;50.890;4.726;2022-09-09T08:18:42;6.63;;;2.60;;
8803;SDS011;4438;50.890;4.726;2022-09-09T08:21:17;5.53;;;2.53;;
8803;SDS011;4438;50.890;4.726;2022-09-09T08:23:44;5.23;;;2.30;;
8803;SDS011;4438;50.890;4.726;2022-09-09T08:26:12;5.63;;;2.30;;
8803;SDS011;4438;50.890;4.726;2022-09-09T08:28:40;7.27;;;2.37;;
8803;SDS011;4438;50.890;4.726;2022-09-09T08:31:13;4.80;;;2.53;;
8803;SDS011;4438;50.890;4.726;2022-09-09T08:33:41;5.70;;;2.70;;
8803;SDS011;4438;50.890;4.726;2022-09-09T08:36:11;6.23;;;2.90;;
8803;SDS011;4438;50.890;4.726;2022-09-09T08:38:37;6.97;;;2.67;;
8803;SDS011;4438;50.890;4.726;2022-09-09T08:43:35;4.67;;;2.17;;
8803;SDS011;4438;50.890;4.726;2022-09-09T08:46:05;5.17;;;2.47;;
8803;SDS011;4438;50.890;4.726;2022-09-09T08:48:44;4.73;;;2.40;;
8803;SDS011;4438;50.890;4.726;2022-09-09T08:51:13;6.30;;;2.43;;
8803;SDS011;4438;50.890;4.726;2022-09-09T08:53:43;6.57;;;2.20;;
8803;SDS011;4438;50.890;4.726;2022-09-09T08:56:11;5.80;;;2.40;;
8803;SDS011;4438;50.890;4.726;2022-09-09T08:58:48;6.27;;;2.50;;
8803;SDS011;4438;50.890;4.726;2022-09-09T09:09:06;5.97;;;2.50;;
8803;SDS011;4438;50.890;4.726;2022-09-09T09:11:37;5.17;;;2.70;;
8803;SDS011;4438;50.890;4.726;2022-09-09T09:14:09;4.83;;;2.57;;
8803;SDS011;4438;50.890;4.726;2022-09-09T09:17:20;6.53;;;2.97;;
8803;SDS011;4438;50.890;4.726;2022-09-09T09:19:28;6.63;;;3.00;;
8803;SDS011;4438;50.890;4.726;2022-09-09T09:27:13;5.33;;;2.50;;
8803;SDS011;4438;50.890;4.726;2022-09-09T09:29:39;7.00;;;3.07;;
8803;SDS011;4438;50.890;4.726;2022-09-09T09:32:08;5.63;;;2.70;;
8803;SDS011;4438;50.890;4.726;2022-09-09T09:34:36;7.30;;;3.13;;
8803;SDS011;4438;50.890;4.726;2022-09-09T09:37:02;5.63;;;2.90;;
8803;SDS011;4438;50.890;4.726;2022-09-09T09:39:37;5.67;;;2.63;;
8803;SDS011;4438;50.890;4.726;2022-09-09T09:42:22;6.43;;;2.73;;
8803;SDS011;4438;50.890;4.726;2022-09-09T09:44:49;5.33;;;2.70;;
8803;SDS011;4438;50.890;4.726;2022-09-09T09:49:51;7.90;;;2.67;;
8803;SDS011;4438;50.890;4.726;2022-09-09T09:52:21;4.23;;;2.53;;
8803;SDS011;4438;50.890;4.726;2022-09-09T09:54:47;5.53;;;2.77;;
8803;SDS011;4438;50.890;4.726;2022-09-09T09:57:14;4.87;;;2.77;;
8803;SDS011;4438;50.890;4.726;2022-09-09T09:59:41;5.70;;;3.30;;
8803;SDS011;4438;50.890;4.726;2022-09-09T10:02:23;5.83;;;2.93;;
8803;SDS011;4438;50.890;4.726;2022-09-09T10:07:36;6.10;;;2.67;;
8803;SDS011;4438;50.890;4.726;2022-09-09T10:10:03;5.67;;;2.73;;
8803;SDS011;4438;50.890;4.726;2022-09-09T10:15:38;5.67;;;3.13;;
8803;SDS011;4438;50.890;4.726;2022-09-09T10:25:58;7.10;;;3.30;;
8803;SDS011;4438;50.890;4.726;2022-09-09T10:34:13;7.67;;;3.10;;
8803;SDS011;4438;50.890;4.726;2022-09-09T10:36:44;6.10;;;3.00;;
8803;SDS011;4438;50.890;4.726;2022-09-09T10:47:13;5.27;;;2.77;;
8803;SDS011;4438;50.890;4.726;2022-09-09T10:52:45;7.00;;;3.00;;
8803;SDS011;4438;50.890;4.726;2022-09-09T10:55:15;6.03;;;3.30;;
8803;SDS011;4438;50.890;4.726;2022-09-09T10:57:43;5.93;;;2.77;;
8803;SDS011;4438;50.890;4.726;2022-09-09T11:03:27;6.43;;;3.20;;
8803;SDS011;4438;50.890;4.726;2022-09-09T11:06:17;5.63;;;3.13;;
8803;SDS011;4438;50.890;4.726;2022-09-09T11:08:44;5.70;;;3.13;;
8803;SDS011;4438;50.890;4.726;2022-09-09T11:11:29;7.03;;;3.10;;
8803;SDS011;4438;50.890;4.726;2022-09-09T11:16:40;6.23;;;2.73;;
8803;SDS011;4438;50.890;4.726;2022-09-09T11:19:53;5.63;;;3.00;;
8803;SDS011;4438;50.890;4.726;2022-09-09T11:21:54;6.37;;;2.70;;
8803;SDS011;4438;50.890;4.726;2022-09-09T11:30:04;3.90;;;2.60;;
8803;SDS011;4438;50.890;4.726;2022-09-09T11:40:28;3.80;;;2.30;;
8803;SDS011;4438;50.890;4.726;2022-09-09T11:45:31;5.73;;;2.53;;
8803;SDS011;4438;50.890;4.726;2022-09-09T11:47:58;4.43;;;2.23;;
8803;SDS011;4438;50.890;4.726;2022-09-09T11:53:02;4.43;;;1.97;;
8803;SDS011;4438;50.890;4.726;2022-09-09T11:55:29;5.60;;;2.13;;
8803;SDS011;4438;50.890;4.726;2022-09-09T11:57:58;3.73;;;2.30;;
8803;SDS011;4438;50.890;4.726;2022-09-09T12:00:38;4.00;;;2.00;;
8803;SDS011;4438;50.890;4.726;2022-09-09T12:03:12;5.60;;;2.20;;
8803;SDS011;4438;50.890;4.726;2022-09-09T12:05:52;4.27;;;2.10;;
8803;SDS011;4438;50.890;4.726;2022-09-09T12:08:21;4.47;;;2.20;;
8803;SDS011;4438;50.890;4.726;2022-09-09T12:10:54;2.83;;;2.17;;
8803;SDS011;4438;50.890;4.726;2022-09-09T12:13:22;4.53;;;2.20;;
8803;SDS011;4438;50.890;4.726;2022-09-09T12:15:52;4.13;;;2.37;;
8803;SDS011;4438;50.890;4.726;2022-09-09T12:18:23;3.73;;;2.10;;
8803;SDS011;4438;50.890;4.726;2022-09-09T12:23:35;3.47;;;1.90;;
8803;SDS011;4438;50.890;4.726;2022-09-09T12:26:19;3.03;;;1.77;;
8803;SDS011;4438;50.890;4.726;2022-09-09T12:31:22;2.80;;;2.10;;
8803;SDS011;4438;50.890;4.726;2022-09-09T12:33:49;3.33;;;2.10;;
8803;SDS011;4438;50.890;4.726;2022-09-09T12:36:21;4.83;;;2.00;;
8803;SDS011;4438;50.890;4.726;2022-09-09T12:38:49;3.60;;;1.90;;
8803;SDS011;4438;50.890;4.726;2022-09-09T12:41:21;4.57;;;2.07;;
8803;SDS011;4438;50.890;4.726;2022-09-09T12:43:47;4.53;;;1.80;;
8803;SDS011;4438;50.890;4.726;2022-09-09T12:46:23;4.00;;;2.27;;
8803;SDS011;4438;50.890;4.726;2022-09-09T12:48:53;3.37;;;1.87;;
8803;SDS011;4438;50.890;4.726;2022-09-09T12:51:29;4.23;;;1.80;;
8803;SDS011;4438;50.890;4.726;2022-09-09T12:53:56;3.33;;;1.90;;
8803;SDS011;4438;50.890;4.726;2022-09-09T12:56:24;4.10;;;2.30;;
8803;SDS011;4438;50.890;4.726;2022-09-09T12:58:54;3.07;;;2.03;;
8803;SDS011;4438;50.890;4.726;2022-09-09T13:01:22;3.07;;;2.10;;
8803;SDS011;4438;50.890;4.726;2022-09-09T13:03:49;3.43;;;2.20;;
8803;SDS011;4438;50.890;4.726;2022-09-09T13:06:23;4.47;;;2.10;;
8803;SDS011;4438;50.890;4.726;2022-09-09T13:08:50;4.47;;;2.00;;
8803;SDS011;4438;50.890;4.726;2022-09-09T13:11:17;3.80;;;2.03;;
8803;SDS011;4438;50.890;4.726;2022-09-09T13:13:49;2.60;;;1.87;;
8803;SDS011;4438;50.890;4.726;2022-09-09T13:16:20;5.33;;;2.00;;
8803;SDS011;4438;50.890;4.726;2022-09-09T13:18:48;3.10;;;1.77;;
8803;SDS011;4438;50.890;4.726;2022-09-09T13:21:14;3.03;;;1.80;;
8803;SDS011;4438;50.890;4.726;2022-09-09T13:23:40;3.10;;;1.70;;
8803;SDS011;4438;50.890;4.726;2022-09-09T13:26:21;3.87;;;1.80;;
8803;SDS011;4438;50.890;4.726;2022-09-09T13:28:47;2.73;;;1.57;;
8803;SDS011;4438;50.890;4.726;2022-09-09T13:31:27;3.07;;;1.80;;
8803;SDS011;4438;50.890;4.726;2022-09-09T13:33:53;2.33;;;1.40;;
8803;SDS011;4438;50.890;4.726;2022-09-09T13:36:30;3.33;;;1.50;;
8803;SDS011;4438;50.890;4.726;2022-09-09T13:38:57;2.97;;;1.70;;
8803;SDS011;4438;50.890;4.726;2022-09-09T13:41:34;2.63;;;1.60;;
8803;SDS011;4438;50.890;4.726;2022-09-09T13:44:01;4.30;;;1.73;;
8803;SDS011;4438;50.890;4.726;2022-09-09T13:46:38;3.13;;;1.60;;
8803;SDS011;4438;50.890;4.726;2022-09-09T13:51:44;2.70;;;1.70;;
8803;SDS011;4438;50.890;4.726;2022-09-09T13:54:12;2.73;;;1.77;;
8803;SDS011;4438;50.890;4.726;2022-09-09T13:56:39;5.00;;;1.70;;
8803;SDS011;4438;50.890;4.726;2022-09-09T13:59:09;3.57;;;1.67;;
8803;SDS011;4438;50.890;4.726;2022-09-09T14:01:36;2.30;;;1.63;;
8803;SDS011;4438;50.890;4.726;2022-09-09T14:04:03;4.80;;;1.77;;
8803;SDS011;4438;50.890;4.726;2022-09-09T14:06:31;4.10;;;1.60;;
8803;SDS011;4438;50.890;4.726;2022-09-09T14:08:57;2.27;;;1.53;;
8803;SDS011;4438;50.890;4.726;2022-09-09T14:11:24;3.17;;;1.70;;
8803;SDS011;4438;50.890;4.726;2022-09-09T14:13:50;2.80;;;1.80;;
8803;SDS011;4438;50.890;4.726;2022-09-09T14:16:16;3.70;;;1.50;;
8803;SDS011;4438;50.890;4.726;2022-09-09T14:18:43;2.13;;;1.50;;
8803;SDS011;4438;50.890;4.726;2022-09-09T14:21:09;2.27;;;1.40;;
8803;SDS011;4438;50.890;4.726;2022-09-09T14:23:36;2.10;;;1.47;;
8803;SDS011;4438;50.890;4.726;2022-09-09T14:26:03;4.33;;;1.90;;
8803;SDS011;4438;50.890;4.726;2022-09-09T14:28:29;2.73;;;1.60;;
8803;SDS011;4438;50.890;4.726;2022-09-09T14:30:58;3.67;;;1.80;;
8803;SDS011;4438;50.890;4.726;2022-09-09T14:33:24;1.73;;;1.50;;
8803;SDS011;4438;50.890;4.726;2022-09-09T14:35:55;2.63;;;1.60;;
8803;SDS011;4438;50.890;4.726;2022-09-09T14:38:21;2.00;;;1.43;;
8803;SDS011;4438;50.890;4.726;2022-09-09T14:40:47;3.00;;;1.80;;
8803;SDS011;4438;50.890;4.726;2022-09-09T14:43:13;3.53;;;1.70;;
8803;SDS011;4438;50.890;4.726;2022-09-09T14:45:39;2.97;;;1.90;;
8803;SDS011;4438;50.890;4.726;2022-09-09T14:48:05;2.93;;;1.87;;
8803;SDS011;4438;50.890;4.726;2022-09-09T14:50:32;1.93;;;1.50;;
8803;SDS011;4438;50.890;4.726;2022-09-09T14:52:59;3.97;;;1.70;;
8803;SDS011;4438;50.890;4.726;2022-09-09T14:55:25;2.93;;;1.80;;
8803;SDS011;4438;50.890;4.726;2022-09-09T14:57:53;1.90;;;1.70;;
8803;SDS011;4438;50.890;4.726;2022-09-09T15:00:19;3.53;;;2.03;;
8803;SDS011;4438;50.890;4.726;2022-09-09T15:02:46;2.83;;;1.73;;
8803;SDS011;4438;50.890;4.726;2022-09-09T15:05:12;2.90;;;1.87;;
8803;SDS011;4438;50.890;4.726;2022-09-09T15:07:38;4.80;;;2.13;;
8803;SDS011;4438;50.890;4.726;2022-09-09T15:10:05;2.97;;;2.10;;
8803;SDS011;4438;50.890;4.726;2022-09-09T15:12:31;3.53;;;1.90;;
8803;SDS011;4438;50.890;4.726;2022-09-09T15:14:58;3.93;;;2.00;;
8803;SDS011;4438;50.890;4.726;2022-09-09T15:17:24;4.43;;;1.90;;
8803;SDS011;4438;50.890;4.726;2022-09-09T15:19:52;2.73;;;1.73;;
8803;SDS011;4438;50.890;4.726;2022-09-09T15:22:18;2.90;;;1.90;;
8803;SDS011;4438;50.890;4.726;2022-09-09T15:24:44;2.87;;;1.70;;
8803;SDS011;4438;50.890;4.726;2022-09-09T15:27:10;3.57;;;1.83;;
8803;SDS011;4438;50.890;4.726;2022-09-09T15:29:36;2.33;;;1.73;;
8803;SDS011;4438;50.890;4.726;2022-09-09T15:32:04;3.03;;;1.60;;
8803;SDS011;4438;50.890;4.726;2022-09-09T15:34:30;3.03;;;1.70;;
8803;SDS011;4438;50.890;4.726;2022-09-09T15:36:56;2.63;;;1.63;;
8803;SDS011;4438;50.890;4.726;2022-09-09T15:39:25;3.00;;;1.50;;
8803;SDS011;4438;50.890;4.726;2022-09-09T15:41:51;2.37;;;1.53;;
8803;SDS011;4438;50.890;4.726;2022-09-09T15:44:17;5.03;;;1.80;;
8803;SDS011;4438;50.890;4.726;2022-09-09T15:46:45;3.30;;;1.60;;
8803;SDS011;4438;50.890;4.726;2022-09-09T15:49:18;2.67;;;1.53;;
8803;SDS011;4438;50.890;4.726;2022-09-09T15:51:45;2.57;;;1.53;;
8803;SDS011;4438;50.890;4.726;2022-09-09T15:54:13;2.70;;;1.70;;
8803;SDS011;4438;50.890;4.726;2022-09-09T15:56:41;3.03;;;1.60;;
8803;SDS011;4438;50.890;4.726;2022-09-09T15:59:07;3.07;;;1.70;;
8803;SDS011;4438;50.890;4.726;2022-09-09T16:01:33;2.90;;;1.63;;
8803;SDS011;4438;50.890;4.726;2022-09-09T16:04:00;3.13;;;1.60;;
8803;SDS011;4438;50.890;4.726;2022-09-09T16:06:27;2.73;;;1.40;;
8803;SDS011;4438;50.890;4.726;2022-09-09T16:08:54;3.40;;;1.67;;
8803;SDS011;4438;50.890;4.726;2022-09-09T16:11:21;4.17;;;1.87;;
8803;SDS011;4438;50.890;4.726;2022-09-09T16:13:48;3.73;;;1.60;;
8803;SDS011;4438;50.890;4.726;2022-09-09T16:16:14;3.10;;;1.70;;
8803;SDS011;4438;50.890;4.726;2022-09-09T16:18:42;3.27;;;1.87;;
8803;SDS011;4438;50.890;4.726;2022-09-09T16:21:29;2.30;;;1.77;;
8803;SDS011;4438;50.890;4.726;2022-09-09T16:23:56;2.70;;;1.73;;
8803;SDS011;4438;50.890;4.726;2022-09-09T16:26:24;3.90;;;1.80;;
8803;SDS011;4438;50.890;4.726;2022-09-09T16:28:50;2.73;;;2.10;;
8803;SDS011;4438;50.890;4.726;2022-09-09T16:31:20;3.27;;;2.07;;
8803;SDS011;4438;50.890;4.726;2022-09-09T16:33:46;3.43;;;1.83;;
8803;SDS011;4438;50.890;4.726;2022-09-09T16:36:14;3.00;;;2.10;;
8803;SDS011;4438;50.890;4.726;2022-09-09T16:38:40;3.67;;;2.03;;
8803;SDS011;4438;50.890;4.726;2022-09-09T16:41:08;2.90;;;1.90;;
8803;SDS011;4438;50.890;4.726;2022-09-09T16:43:35;2.70;;;2.00;;
8803;SDS011;4438;50.890;4.726;2022-09-09T16:46:02;4.30;;;2.10;;
8803;SDS011;4438;50.890;4.726;2022-09-09T16:48:31;2.77;;;2.03;;
8803;SDS011;4438;50.890;4.726;2022-09-09T16:51:05;4.47;;;2.20;;
8803;SDS011;4438;50.890;4.726;2022-09-09T16:53:32;4.67;;;2.20;;
8803;SDS011;4438;50.890;4.726;2022-09-09T16:55:58;3.90;;;2.40;;
8803;SDS011;4438;50.890;4.726;2022-09-09T16:58:31;4.77;;;2.53;;
8803;SDS011;4438;50.890;4.726;2022-09-09T17:00:57;2.97;;;2.17;;
8803;SDS011;4438;50.890;4.726;2022-09-09T17:03:24;3.63;;;2.13;;
8803;SDS011;4438;50.890;4.726;2022-09-09T17:05:50;3.80;;;2.30;;
8803;SDS011;4438;50.890;4.726;2022-09-09T17:08:16;3.30;;;2.30;;
8803;SDS011;4438;50.890;4.726;2022-09-09T17:10:42;3.93;;;2.43;;
8803;SDS011;4438;50.890;4.726;2022-09-09T17:13:08;3.97;;;2.27;;
8803;SDS011;4438;50.890;4.726;2022-09-09T17:15:44;2.40;;;1.80;;
8803;SDS011;4438;50.890;4.726;2022-09-09T17:18:10;2.87;;;1.73;;